Time;durP1;ratioP1;P1;durP2;ratioP2;P2;SDS_P1;SDS_P2;PMS_P1;PMS_P2;Temp;Humidity;BMP_temperature;BMP_pressure;BME280_temperature;BME280_humidity;BME280_pressure;Samples;Min_cycle;Max_cycle;Signal;HPM_P1;HPM_P2
2022/07/04 00:02:25;;;;;;;5.97;3.28;;;19.10;99.90;;;;;;5011161;28;20034;-60
2022/07/04 00:04:50;;;;;;;4.13;2.67;;;19.10;99.90;;;;;;5010385;28;20045;-61
2022/07/04 00:07:16;;;;;;;4.72;2.88;;;19.10;99.90;;;;;;5009168;28;20024;-60
2022/07/04 00:09:42;;;;;;;5.03;2.75;;;19.10;99.90;;;;;;5024095;28;20059;-60
2022/07/04 00:12:08;;;;;;;8.00;2.80;;;19.00;99.90;;;;;;5011818;28;20040;-60
2022/07/04 00:14:35;;;;;;;4.85;2.60;;;18.90;99.90;;;;;;5003501;28;20033;-60
2022/07/04 00:17:00;;;;;;;3.53;2.72;;;18.80;99.90;;;;;;5011542;28;20037;-60
2022/07/04 00:19:26;;;;;;;3.00;2.60;;;18.70;99.90;;;;;;5010914;28;20382;-61
2022/07/04 00:21:52;;;;;;;4.47;2.58;;;18.70;99.90;;;;;;5009573;28;20800;-61
2022/07/04 00:24:18;;;;;;;4.22;2.70;;;18.60;99.90;;;;;;5009940;28;20030;-60
2022/07/04 00:26:43;;;;;;;4.53;2.25;;;18.50;99.90;;;;;;5010755;28;20432;-61
2022/07/04 00:29:09;;;;;;;3.33;2.80;;;18.50;99.90;;;;;;5010753;28;20055;-60
2022/07/04 00:31:35;;;;;;;3.63;2.70;;;18.50;99.90;;;;;;5010590;28;20026;-61
2022/07/04 00:34:01;;;;;;;5.00;2.90;;;18.60;99.90;;;;;;5009772;28;20041;-61
2022/07/04 00:36:27;;;;;;;4.22;2.83;;;18.70;99.90;;;;;;5010488;28;20041;-61
2022/07/04 00:38:52;;;;;;;2.78;2.53;;;18.70;99.90;;;;;;5010041;28;20038;-61
2022/07/04 00:41:18;;;;;;;3.97;3.05;;;18.80;99.90;;;;;;5010721;28;20108;-60
2022/07/04 00:43:58;;;;;;;4.88;2.70;;;18.70;99.90;;;;;;5008288;28;20761;-61
2022/07/04 00:46:24;;;;;;;4.22;2.88;;;18.70;99.90;;;;;;5010141;28;20034;-60
2022/07/04 00:48:50;;;;;;;4.35;2.78;;;18.60;99.90;;;;;;5010496;28;20317;-61
2022/07/04 00:51:15;;;;;;;5.00;2.78;;;18.60;99.90;;;;;;5008795;28;20450;-60
2022/07/04 00:53:41;;;;;;;7.47;3.33;;;18.50;99.90;;;;;;5009692;28;20053;-60
2022/07/04 00:56:06;;;;;;;4.55;3.08;;;18.40;99.90;;;;;;5010442;28;20073;-60
2022/07/04 00:58:33;;;;;;;5.82;3.85;;;18.20;99.90;;;;;;5010505;28;20045;-60
2022/07/04 01:00:58;;;;;;;6.35;3.10;;;18.10;99.90;;;;;;5007795;28;20038;-60
2022/07/04 01:03:24;;;;;;;4.63;3.20;;;18.00;99.90;;;;;;5010840;28;20576;-61
2022/07/04 01:05:50;;;;;;;7.03;3.08;;;18.00;99.90;;;;;;5008586;28;20065;-60
2022/07/04 01:08:16;;;;;;;6.22;2.90;;;18.00;99.90;;;;;;5010402;28;20391;-61
2022/07/04 01:10:42;;;;;;;4.72;3.03;;;17.90;99.90;;;;;;5008677;28;20040;-61
2022/07/04 01:13:08;;;;;;;4.97;3.05;;;17.80;99.90;;;;;;5010811;28;20404;-61
2022/07/04 01:15:33;;;;;;;8.15;2.97;;;17.80;99.90;;;;;;5007992;28;20041;-60
2022/07/04 01:17:59;;;;;;;3.80;3.10;;;17.80;99.90;;;;;;5009645;28;20049;-61
2022/07/04 01:20:25;;;;;;;3.30;2.92;;;17.70;99.90;;;;;;5008453;28;20072;-60
2022/07/04 01:22:50;;;;;;;6.85;3.10;;;17.70;99.90;;;;;;5008967;28;20030;-60
2022/07/04 01:25:16;;;;;;;5.18;3.00;;;17.70;99.90;;;;;;5009826;28;20044;-60
2022/07/04 01:27:42;;;;;;;5.80;2.90;;;17.60;99.90;;;;;;5007704;28;20060;-61
2022/07/04 01:30:08;;;;;;;5.85;3.05;;;17.40;99.90;;;;;;5010536;28;20073;-60
2022/07/04 01:32:34;;;;;;;5.13;3.15;;;17.40;99.90;;;;;;5009344;28;20560;-60
2022/07/04 01:35:00;;;;;;;8.48;3.42;;;17.40;99.90;;;;;;5009094;28;20038;-60
2022/07/04 01:37:25;;;;;;;4.50;3.10;;;17.60;99.90;;;;;;5008675;28;20030;-60
2022/07/04 01:39:51;;;;;;;6.07;3.33;;;17.70;99.90;;;;;;5008090;28;20034;-60
2022/07/04 01:42:17;;;;;;;5.85;3.33;;;17.70;99.90;;;;;;5010115;28;20061;-60
2022/07/04 01:44:42;;;;;;;7.53;3.25;;;17.70;99.90;;;;;;5006733;28;20627;-60
2022/07/04 01:47:08;;;;;;;5.60;3.28;;;17.70;99.90;;;;;;5010188;28;20515;-60
2022/07/04 01:49:33;;;;;;;7.07;3.60;;;17.70;99.90;;;;;;5008978;28;20077;-61
2022/07/04 01:51:59;;;;;;;7.78;3.25;;;17.60;99.90;;;;;;5007744;28;20037;-60
2022/07/04 01:54:26;;;;;;;5.25;3.42;;;17.60;99.90;;;;;;5007939;28;20505;-61
2022/07/04 01:56:52;;;;;;;6.90;3.33;;;17.70;99.90;;;;;;5009010;28;20081;-60
2022/07/04 01:59:17;;;;;;;3.92;3.22;;;17.70;99.90;;;;;;5008515;28;20069;-61
2022/07/04 02:01:43;;;;;;;6.72;3.33;;;17.60;99.90;;;;;;5008883;28;20025;-60
2022/07/04 02:04:09;;;;;;;5.88;3.67;;;17.70;99.90;;;;;;5007251;28;20719;-60
2022/07/04 02:06:35;;;;;;;8.93;4.00;;;17.80;99.90;;;;;;5015469;28;20469;-60
2022/07/04 02:09:16;;;;;;;5.82;3.60;;;17.80;99.90;;;;;;5008700;28;20038;-60
2022/07/04 02:14:28;;;;;;;7.70;3.60;;;17.80;99.90;;;;;;5009732;28;20455;-61
2022/07/04 02:16:54;;;;;;;5.22;3.78;;;17.90;99.90;;;;;;5007917;28;20066;-61
2022/07/04 02:19:20;;;;;;;4.40;3.25;;;17.90;99.90;;;;;;5009664;28;20068;-60
2022/07/04 02:21:45;;;;;;;7.07;3.40;;;17.90;99.90;;;;;;5002919;28;20037;-60
2022/07/04 02:24:11;;;;;;;8.23;3.13;;;18.00;99.90;;;;;;5006905;28;20036;-60
2022/07/04 02:26:37;;;;;;;6.20;3.38;;;18.10;99.90;;;;;;5007823;28;20057;-59
2022/07/04 02:29:02;;;;;;;8.82;3.42;;;18.10;99.90;;;;;;5007762;28;20052;-60
2022/07/04 02:31:28;;;;;;;5.70;4.00;;;18.10;99.90;;;;;;5008405;28;20057;-60
2022/07/04 02:33:54;;;;;;;9.60;4.00;;;18.10;99.90;;;;;;5007407;28;20037;-60
2022/07/04 02:36:19;;;;;;;3.97;2.95;;;18.20;99.90;;;;;;5005438;28;20041;-60
2022/07/04 02:38:45;;;;;;;7.03;3.53;;;18.20;99.90;;;;;;5007040;28;20038;-61
2022/07/04 02:41:11;;;;;;;7.68;3.33;;;18.20;99.90;;;;;;5009335;28;20026;-61
2022/07/04 02:43:36;;;;;;;4.50;3.40;;;18.20;99.90;;;;;;5006754;28;20022;-60
2022/07/04 02:46:02;;;;;;;3.92;3.20;;;18.20;99.90;;;;;;5006817;28;20064;-60
2022/07/04 02:48:27;;;;;;;7.10;3.25;;;18.20;99.90;;;;;;5006898;28;20103;-60
2022/07/04 02:50:53;;;;;;;8.63;3.53;;;18.30;99.90;;;;;;5008499;28;20561;-60
2022/07/04 02:53:19;;;;;;;4.85;3.25;;;18.30;99.90;;;;;;5008153;28;20037;-60
2022/07/04 02:55:44;;;;;;;6.47;3.60;;;18.20;99.90;;;;;;5007155;28;20070;-60
2022/07/04 02:58:10;;;;;;;5.60;3.70;;;18.20;99.90;;;;;;5003537;28;20030;-61
2022/07/04 03:00:35;;;;;;;5.13;3.35;;;18.10;99.90;;;;;;5004879;28;20034;-60
2022/07/04 03:03:01;;;;;;;4.10;3.25;;;18.10;99.90;;;;;;5008665;28;20788;-60
2022/07/04 03:05:31;;;;;;;4.13;3.40;;;18.10;99.90;;;;;;5009511;28;20434;-60
2022/07/04 03:07:57;;;;;;;4.38;3.38;;;18.10;99.90;;;;;;5012269;28;20034;-60
2022/07/04 03:10:23;;;;;;;5.90;3.50;;;18.10;99.90;;;;;;5011324;28;20718;-60
2022/07/04 03:12:48;;;;;;;9.20;3.25;;;18.10;99.90;;;;;;5012198;28;20026;-60
2022/07/04 03:15:14;;;;;;;4.15;3.17;;;18.10;99.90;;;;;;5013136;28;20030;-60
2022/07/04 03:17:40;;;;;;;7.82;3.17;;;18.00;99.90;;;;;;5012697;28;20110;-60
2022/07/04 03:20:06;;;;;;;4.18;3.35;;;17.90;99.90;;;;;;5012610;28;20156;-60
2022/07/04 03:22:32;;;;;;;7.30;3.38;;;17.80;99.90;;;;;;5012787;28;20041;-60
2022/07/04 03:24:57;;;;;;;7.03;3.75;;;17.70;99.90;;;;;;5011070;28;20038;-60
2022/07/04 03:27:23;;;;;;;4.53;3.20;;;17.70;99.90;;;;;;5012724;28;20034;-60
2022/07/04 03:29:49;;;;;;;8.02;3.50;;;17.70;99.90;;;;;;5011976;28;20096;-60
2022/07/04 03:32:14;;;;;;;4.28;3.40;;;17.70;99.90;;;;;;5012380;28;20474;-60
2022/07/04 03:34:40;;;;;;;7.82;3.38;;;17.70;99.90;;;;;;5012391;28;20028;-60
2022/07/04 03:37:06;;;;;;;4.20;3.40;;;17.70;99.90;;;;;;5011857;28;20152;-60
2022/07/04 03:39:31;;;;;;;6.75;3.47;;;17.60;99.90;;;;;;5011245;28;20471;-60
2022/07/04 03:41:57;;;;;;;10.23;3.67;;;17.60;99.90;;;;;;5011610;28;20030;-60
2022/07/04 03:44:22;;;;;;;5.82;3.30;;;17.60;99.90;;;;;;5011839;28;20383;-60
2022/07/04 03:46:48;;;;;;;5.28;3.47;;;17.70;99.90;;;;;;5011595;28;20397;-60
2022/07/04 03:49:14;;;;;;;4.40;3.35;;;17.70;99.90;;;;;;5012368;28;20036;-60
2022/07/04 03:51:39;;;;;;;4.70;3.35;;;17.70;99.90;;;;;;5012421;28;20030;-60
2022/07/04 03:54:05;;;;;;;5.85;3.50;;;17.70;99.90;;;;;;5010935;28;20057;-60
2022/07/04 03:56:31;;;;;;;5.45;3.20;;;17.80;99.90;;;;;;5011691;28;20137;-60
2022/07/04 03:58:56;;;;;;;5.38;3.22;;;17.80;99.90;;;;;;5010505;28;20104;-60
2022/07/04 04:01:22;;;;;;;6.65;3.40;;;17.80;99.90;;;;;;5012369;28;20030;-60
2022/07/04 04:06:32;;;;;;;4.68;3.25;;;17.70;99.90;;;;;;5012141;28;20041;-60
2022/07/04 04:08:57;;;;;;;11.13;3.42;;;17.80;99.90;;;;;;5011112;28;20665;-60
2022/07/04 04:11:23;;;;;;;8.70;3.47;;;17.80;99.90;;;;;;5011675;28;20042;-60
2022/07/04 04:13:49;;;;;;;5.95;3.53;;;17.70;99.90;;;;;;5010845;28;20041;-60
2022/07/04 04:16:15;;;;;;;4.50;3.10;;;17.70;99.90;;;;;;5011792;28;20041;-60
2022/07/04 04:18:40;;;;;;;6.55;3.38;;;17.70;99.90;;;;;;5009705;28;20034;-60
2022/07/04 04:21:06;;;;;;;6.13;3.60;;;17.70;99.90;;;;;;5010802;28;20110;-60
2022/07/04 04:23:32;;;;;;;6.22;3.38;;;17.50;99.90;;;;;;5011459;28;20037;-60
2022/07/04 04:25:58;;;;;;;6.95;3.22;;;17.40;99.90;;;;;;5011027;28;20165;-60
2022/07/04 04:28:23;;;;;;;6.35;3.45;;;17.60;99.90;;;;;;5010074;28;20058;-60
2022/07/04 04:30:50;;;;;;;5.07;3.53;;;17.70;99.90;;;;;;5008575;28;20462;-60
2022/07/04 04:33:16;;;;;;;7.07;3.60;;;17.70;99.90;;;;;;5010371;28;20121;-60
2022/07/04 04:35:41;;;;;;;4.97;3.40;;;17.80;99.90;;;;;;5011089;28;20105;-60
2022/07/04 04:38:07;;;;;;;7.60;3.30;;;17.80;99.90;;;;;;5011529;28;20049;-60
2022/07/04 04:40:33;;;;;;;4.05;2.97;;;17.70;99.90;;;;;;5031052;28;20049;-60
2022/07/04 04:42:58;;;;;;;3.90;3.25;;;17.50;99.90;;;;;;5020336;28;20534;-60
2022/07/04 04:45:24;;;;;;;6.07;3.63;;;17.50;99.90;;;;;;5011113;28;20105;-60
2022/07/04 04:47:51;;;;;;;5.75;3.60;;;17.60;99.90;;;;;;5009134;28;20064;-61
2022/07/04 04:50:17;;;;;;;4.53;3.38;;;17.50;99.90;;;;;;5009457;28;20478;-60
2022/07/04 04:52:43;;;;;;;9.63;3.63;;;17.60;99.90;;;;;;5022740;28;20044;-61
2022/07/04 04:55:09;;;;;;;6.13;3.70;;;17.70;99.90;;;;;;5018210;28;20053;-60
2022/07/04 04:57:38;;;;;;;7.90;3.72;;;17.70;99.90;;;;;;5016251;28;20033;-60
2022/07/04 05:00:04;;;;;;;4.68;3.78;;;17.80;99.90;;;;;;5017856;28;20030;-60
2022/07/04 05:02:33;;;;;;;8.50;3.85;;;17.80;99.90;;;;;;5019634;28;20424;-61
2022/07/04 05:04:58;;;;;;;12.15;4.38;;;17.80;99.90;;;;;;5021385;28;20029;-61
2022/07/04 05:07:24;;;;;;;8.43;4.30;;;17.70;99.90;;;;;;5009061;28;20041;-61
2022/07/04 05:09:50;;;;;;;4.20;3.33;;;17.80;99.90;;;;;;5006688;28;20030;-60
2022/07/04 05:12:16;;;;;;;9.82;4.15;;;17.80;99.90;;;;;;5008495;28;20040;-60
2022/07/04 05:14:42;;;;;;;8.70;3.90;;;17.90;99.90;;;;;;5010467;28;20045;-60
2022/07/04 05:17:08;;;;;;;11.82;4.18;;;17.90;99.90;;;;;;5009930;28;20057;-61
2022/07/04 05:19:33;;;;;;;9.40;3.78;;;17.90;99.90;;;;;;5010839;28;20053;-61
2022/07/04 05:21:59;;;;;;;6.47;3.70;;;18.00;99.90;;;;;;5009903;28;20089;-60
2022/07/04 05:24:24;;;;;;;9.15;3.72;;;18.10;99.90;;;;;;5009719;28;20053;-60
2022/07/04 05:26:50;;;;;;;5.53;3.83;;;18.10;99.90;;;;;;5009842;28;20030;-60
2022/07/04 05:29:16;;;;;;;5.13;3.70;;;18.20;99.90;;;;;;5009822;28;20026;-60
2022/07/04 05:31:42;;;;;;;4.47;3.72;;;18.20;99.90;;;;;;5030336;28;20030;-60
2022/07/04 05:34:08;;;;;;;7.05;4.15;;;18.30;99.90;;;;;;5029266;28;20561;-60
2022/07/04 05:36:33;;;;;;;5.47;3.72;;;18.30;99.90;;;;;;5030108;28;20044;-61
2022/07/04 05:38:59;;;;;;;5.05;3.75;;;18.30;99.90;;;;;;5012368;28;20045;-60
2022/07/04 05:41:25;;;;;;;4.63;3.80;;;18.40;99.90;;;;;;5010329;28;20132;-61
2022/07/04 05:43:51;;;;;;;10.20;4.10;;;18.50;99.90;;;;;;5009014;28;20116;-60
2022/07/04 05:46:16;;;;;;;7.20;4.00;;;18.60;99.90;;;;;;5008300;28;20108;-60
2022/07/04 05:48:42;;;;;;;6.93;3.97;;;18.60;99.90;;;;;;5010113;28;20553;-60
2022/07/04 05:51:08;;;;;;;6.05;4.05;;;18.60;99.90;;;;;;5024300;28;20627;-61
2022/07/04 05:53:34;;;;;;;7.47;4.18;;;18.70;99.90;;;;;;5007425;28;20137;-60
2022/07/04 05:55:59;;;;;;;11.77;4.05;;;18.70;99.90;;;;;;5009186;28;20038;-60
2022/07/04 05:58:25;;;;;;;6.60;4.18;;;18.70;99.90;;;;;;5010858;28;20041;-60
2022/07/04 06:00:51;;;;;;;6.68;4.35;;;18.80;99.90;;;;;;5009086;28;20049;-60
2022/07/04 06:03:16;;;;;;;6.75;4.28;;;18.80;99.90;;;;;;5010286;28;20057;-60
2022/07/04 06:05:42;;;;;;;7.63;4.43;;;18.80;99.90;;;;;;5009831;28;20042;-60
2022/07/04 06:08:08;;;;;;;5.13;4.10;;;18.70;99.90;;;;;;5007530;28;20054;-60
2022/07/04 06:10:33;;;;;;;5.60;4.07;;;18.70;99.90;;;;;;5008342;28;20030;-60
2022/07/04 06:12:59;;;;;;;7.63;4.57;;;18.70;99.90;;;;;;5009170;28;20029;-60
2022/07/04 06:15:25;;;;;;;6.63;4.30;;;18.70;99.90;;;;;;5009247;28;20037;-60
2022/07/04 06:17:51;;;;;;;5.60;4.10;;;18.70;99.90;;;;;;5008133;28;20474;-60
2022/07/04 06:20:17;;;;;;;9.27;4.00;;;18.80;99.90;;;;;;5009362;28;20061;-60
2022/07/04 06:22:45;;;;;;;11.30;3.95;;;18.90;99.90;;;;;;5009550;28;20038;-60
2022/07/04 06:25:16;;;;;;;10.65;4.20;;;19.00;99.90;;;;;;5009033;28;20648;-60
2022/07/04 06:27:44;;;;;;;11.38;4.80;;;19.20;99.90;;;;;;5011730;28;20759;-61
2022/07/04 06:30:10;;;;;;;6.10;4.15;;;19.20;99.90;;;;;;5007499;28;20033;-61
2022/07/04 06:32:42;;;;;;;9.15;3.88;;;19.20;99.90;;;;;;5008068;28;20383;-60
2022/07/04 06:37:52;;;;;;;5.25;4.22;;;19.30;99.90;;;;;;5008983;28;20109;-60
2022/07/04 06:40:18;;;;;;;6.80;4.25;;;19.30;99.90;;;;;;5008342;28;20061;-60
2022/07/04 06:42:43;;;;;;;10.65;4.25;;;19.30;99.90;;;;;;5008279;28;20553;-60
2022/07/04 06:45:09;;;;;;;7.40;4.50;;;19.30;99.90;;;;;;5014640;28;20187;-60
2022/07/04 06:47:35;;;;;;;10.80;4.07;;;19.40;99.90;;;;;;5007102;28;20041;-60
2022/07/04 06:50:01;;;;;;;6.47;4.10;;;19.50;99.90;;;;;;5007363;28;20118;-60
2022/07/04 06:52:27;;;;;;;8.15;4.20;;;19.50;99.90;;;;;;5007422;28;20513;-60
2022/07/04 06:54:53;;;;;;;5.63;4.05;;;19.60;99.90;;;;;;5008889;28;20058;-60
2022/07/04 06:57:18;;;;;;;10.82;4.22;;;19.80;99.90;;;;;;5009008;28;20038;-60
2022/07/04 06:59:44;;;;;;;7.45;4.45;;;19.90;99.90;;;;;;5012739;28;20752;-60
2022/07/04 07:02:09;;;;;;;7.97;4.38;;;20.10;99.90;;;;;;5018078;28;20394;-60
2022/07/04 07:04:35;;;;;;;9.82;3.80;;;20.20;99.90;;;;;;5007827;28;20469;-60
2022/07/04 07:07:01;;;;;;;6.95;3.80;;;20.40;99.90;;;;;;5006814;28;20405;-60
2022/07/04 07:09:26;;;;;;;8.68;4.00;;;20.50;99.90;;;;;;5010335;28;20572;-60
2022/07/04 07:11:52;;;;;;;5.47;3.90;;;20.70;99.90;;;;;;5005685;28;20140;-61
2022/07/04 07:14:18;;;;;;;7.18;4.18;;;20.90;99.90;;;;;;5008388;28;20077;-61
2022/07/04 07:16:43;;;;;;;10.30;4.22;;;21.00;99.90;;;;;;5008054;28;20489;-61
2022/07/04 07:19:09;;;;;;;7.25;4.07;;;21.00;99.90;;;;;;5021415;28;20485;-60
2022/07/04 07:21:34;;;;;;;5.90;3.80;;;20.90;99.90;;;;;;5023346;28;20041;-60
2022/07/04 07:24:00;;;;;;;8.35;3.88;;;20.80;99.90;;;;;;5027753;28;20041;-60
2022/07/04 07:26:26;;;;;;;7.40;4.07;;;20.90;99.90;;;;;;5007109;28;20049;-60
2022/07/04 07:28:52;;;;;;;6.53;3.85;;;20.80;99.90;;;;;;5012249;28;20041;-60
2022/07/04 07:31:17;;;;;;;8.32;4.15;;;20.70;99.90;;;;;;5007846;28;20394;-61
2022/07/04 07:33:43;;;;;;;6.20;4.18;;;21.00;99.90;;;;;;5014380;28;20041;-60
2022/07/04 07:36:09;;;;;;;6.50;3.88;;;20.90;99.90;;;;;;5027529;28;20033;-60
2022/07/04 07:38:34;;;;;;;7.15;3.72;;;20.80;99.90;;;;;;5020604;28;20046;-61
2022/07/04 07:41:00;;;;;;;5.38;3.72;;;20.80;99.90;;;;;;5011676;28;20033;-60
2022/07/04 07:43:26;;;;;;;10.77;4.55;;;20.90;99.90;;;;;;5027634;28;20033;-60
2022/07/04 07:45:51;;;;;;;6.00;4.00;;;21.00;99.90;;;;;;5028606;28;20031;-60
2022/07/04 07:48:17;;;;;;;7.05;3.78;;;21.20;99.90;;;;;;5024262;28;20025;-60
2022/07/04 07:50:43;;;;;;;10.63;4.22;;;21.30;99.90;;;;;;5020652;28;20041;-61
2022/07/04 07:53:08;;;;;;;8.77;4.47;;;21.30;99.90;;;;;;5010376;28;20120;-60
2022/07/04 07:55:34;;;;;;;10.23;4.53;;;21.50;99.90;;;;;;5015604;28;20183;-61
2022/07/04 07:58:01;;;;;;;7.32;4.35;;;21.40;99.90;;;;;;5031114;28;20561;-60
2022/07/04 08:00:27;;;;;;;8.98;4.43;;;21.50;99.90;;;;;;5014965;28;20160;-61
2022/07/04 08:05:38;;;;;;;7.63;4.63;;;21.50;99.90;;;;;;5013240;28;20448;-60
2022/07/04 08:08:04;;;;;;;6.68;4.20;;;21.40;99.90;;;;;;5027229;28;20025;-61
2022/07/04 08:10:30;;;;;;;6.28;4.30;;;21.30;99.90;;;;;;5028108;28;20036;-60
2022/07/04 08:12:56;;;;;;;5.90;3.92;;;21.40;99.90;;;;;;5031398;28;20026;-60
2022/07/04 08:15:22;;;;;;;9.50;4.30;;;21.30;99.90;;;;;;5027493;28;20056;-61
2022/07/04 08:17:47;;;;;;;9.32;3.90;;;21.40;99.90;;;;;;5024277;28;20497;-60
2022/07/04 08:20:13;;;;;;;4.90;3.90;;;21.20;99.90;;;;;;5009731;28;20034;-60
2022/07/04 08:22:38;;;;;;;8.10;4.85;;;21.30;99.90;;;;;;5010517;28;20026;-60
2022/07/04 08:25:04;;;;;;;5.97;4.50;;;21.30;99.90;;;;;;5009816;28;20041;-60
2022/07/04 08:27:30;;;;;;;12.00;4.43;;;21.40;99.90;;;;;;5029901;28;20174;-61
2022/07/04 08:29:56;;;;;;;7.90;4.30;;;21.30;99.90;;;;;;5017220;28;20034;-60
2022/07/04 08:32:21;;;;;;;14.57;3.97;;;21.30;99.90;;;;;;5019547;28;20034;-60
2022/07/04 08:34:47;;;;;;;10.20;4.00;;;21.30;99.90;;;;;;5025113;28;20041;-60
2022/07/04 08:37:13;;;;;;;10.48;4.68;;;21.40;99.90;;;;;;5018962;28;20045;-60
2022/07/04 08:39:38;;;;;;;6.90;3.72;;;21.40;99.90;;;;;;5008267;28;20041;-61
2022/07/04 08:42:16;;;;;;;7.75;3.92;;;21.50;99.90;;;;;;5010459;28;20837;-60
2022/07/04 08:44:55;;;;;;;3.97;3.50;;;21.50;99.90;;;;;;5017411;28;20022;-60
2022/07/04 08:47:24;;;;;;;7.68;4.22;;;21.60;99.90;;;;;;5030388;28;20041;-61
2022/07/04 08:50:03;;;;;;;7.55;4.10;;;21.70;99.90;;;;;;5026702;28;20025;-61
2022/07/04 08:52:40;;;;;;;7.15;4.28;;;21.80;99.90;;;;;;5025262;28;20026;-61
2022/07/04 09:00:39;;;;;;;7.68;4.40;;;22.00;99.90;;;;;;5010752;28;20037;-60
2022/07/04 09:03:05;;;;;;;8.60;4.40;;;21.80;99.90;;;;;;5009674;28;20556;-60
2022/07/04 09:05:32;;;;;;;9.80;4.20;;;21.80;99.90;;;;;;5017027;28;20030;-61
2022/07/04 09:07:58;;;;;;;7.75;3.97;;;21.80;99.90;;;;;;5019394;28;20026;-61
2022/07/04 09:10:25;;;;;;;6.10;3.95;;;21.60;99.90;;;;;;5024865;28;20034;-60
2022/07/04 09:12:51;;;;;;;7.10;4.25;;;21.60;99.90;;;;;;5030759;28;20439;-61
2022/07/04 09:15:17;;;;;;;11.30;4.32;;;21.50;99.90;;;;;;5026318;28;20057;-60
2022/07/04 09:17:43;;;;;;;5.55;4.28;;;21.50;99.90;;;;;;5030637;28;20034;-61
2022/07/04 09:20:21;;;;;;;11.18;4.00;;;21.60;99.90;;;;;;5009640;28;20041;-61
2022/07/04 09:22:48;;;;;;;5.78;4.00;;;21.60;99.90;;;;;;5028295;28;20048;-61
2022/07/04 09:25:14;;;;;;;5.70;4.10;;;21.80;99.90;;;;;;5024995;28;20374;-61
2022/07/04 09:27:49;;;;;;;7.93;4.32;;;21.90;99.90;;;;;;5030394;28;20382;-60
2022/07/04 09:30:20;;;;;;;7.75;4.32;;;22.10;99.90;;;;;;5014274;28;20022;-61
2022/07/04 09:32:50;;;;;;;9.38;4.40;;;22.30;99.90;;;;;;5008772;28;20491;-61
2022/07/04 09:35:16;;;;;;;9.57;4.37;;;22.60;99.90;;;;;;5015841;28;20024;-61
2022/07/04 09:37:48;;;;;;;5.38;4.00;;;22.60;99.90;;;;;;5021178;28;20064;-61
2022/07/04 09:40:28;;;;;;;9.18;4.20;;;22.60;99.90;;;;;;5023754;28;20669;-61
2022/07/04 09:42:59;;;;;;;4.82;4.20;;;23.20;99.90;;;;;;5027173;28;20045;-61
2022/07/04 09:45:27;;;;;;;6.32;3.95;;;23.40;99.90;;;;;;5029234;28;20112;-61
2022/07/04 09:47:57;;;;;;;7.35;4.30;;;23.70;99.90;;;;;;5010180;28;20480;-61
2022/07/04 09:50:25;;;;;;;8.10;4.10;;;23.90;99.90;;;;;;5008783;28;20084;-61
2022/07/04 09:52:53;;;;;;;5.65;3.63;;;24.10;99.90;;;;;;5025210;28;20029;-61
2022/07/04 09:55:24;;;;;;;8.15;4.20;;;24.40;99.90;;;;;;5024199;28;20108;-61
2022/07/04 09:57:50;;;;;;;7.15;4.53;;;24.30;99.90;;;;;;5015408;28;20065;-61
2022/07/04 10:00:36;;;;;;;5.10;3.95;;;24.00;99.90;;;;;;5007104;28;20042;-61
2022/07/04 10:03:22;;;;;;;10.40;4.20;;;23.90;99.90;;;;;;5007980;28;20032;-61
2022/07/04 10:06:10;;;;;;;5.93;4.40;;;23.90;99.90;;;;;;5007940;28;20040;-61
2022/07/04 10:08:37;;;;;;;6.30;4.25;;;23.60;99.90;;;;;;5008722;28;20026;-61
2022/07/04 10:11:04;;;;;;;10.38;4.60;;;23.40;99.90;;;;;;5006201;28;20092;-61
2022/07/04 10:13:30;;;;;;;10.25;4.65;;;23.40;99.90;;;;;;5014583;28;20053;-61
2022/07/04 10:15:56;;;;;;;7.40;4.40;;;23.50;99.90;;;;;;5017208;28;20034;-61
2022/07/04 10:18:23;;;;;;;8.05;4.50;;;23.20;99.90;;;;;;5010700;28;20975;-61
2022/07/04 10:20:50;;;;;;;6.47;4.55;;;23.10;99.90;;;;;;5007470;28;20036;-61
2022/07/04 10:23:18;;;;;;;11.93;4.68;;;23.00;99.90;;;;;;5008623;28;20037;-61
2022/07/04 10:25:46;;;;;;;5.47;4.30;;;23.10;99.90;;;;;;5009525;28;20073;-61
2022/07/04 10:28:12;;;;;;;6.75;4.05;;;23.20;99.90;;;;;;5008967;28;20101;-61
2022/07/04 10:30:40;;;;;;;8.27;4.50;;;23.40;99.90;;;;;;5009628;28;20120;-61
2022/07/04 10:33:08;;;;;;;7.20;4.40;;;23.40;99.90;;;;;;5008879;28;20037;-61
2022/07/04 10:35:56;;;;;;;6.75;4.53;;;23.40;99.90;;;;;;5007796;28;20026;-61
2022/07/04 10:38:23;;;;;;;6.43;4.35;;;23.60;99.90;;;;;;5008853;28;20112;-61
2022/07/04 10:40:56;;;;;;;9.70;4.75;;;23.60;99.90;;;;;;5009451;28;20037;-61
2022/07/04 10:43:30;;;;;;;5.78;4.43;;;23.80;99.90;;;;;;5008722;28;20022;-61
2022/07/04 10:46:16;;;;;;;5.78;4.15;;;23.80;99.90;;;;;;5009211;28;20038;-61
2022/07/04 10:48:56;;;;;;;5.82;4.38;;;24.00;99.90;;;;;;4997257;28;20068;-61
2022/07/04 10:51:39;;;;;;;9.13;4.55;;;24.60;99.90;;;;;;5008431;28;20038;-62
2022/07/04 10:54:12;;;;;;;6.32;4.22;;;24.90;99.90;;;;;;5008267;28;20050;-61
2022/07/04 10:56:46;;;;;;;7.20;4.75;;;24.70;99.90;;;;;;5009309;28;20033;-61
2022/07/04 10:59:17;;;;;;;6.82;4.65;;;24.80;99.90;;;;;;5008249;28;20092;-61
2022/07/04 11:01:48;;;;;;;8.02;4.60;;;25.30;99.90;;;;;;5008534;28;20048;-61
2022/07/04 11:04:53;;;;;;;5.45;4.30;;;24.80;99.90;;;;;;5007607;28;20045;-61
2022/07/04 11:07:42;;;;;;;11.43;4.45;;;24.50;99.90;;;;;;5008322;28;20390;-61
2022/07/04 11:10:21;;;;;;;4.47;3.88;;;24.60;99.90;;;;;;5005414;28;20042;-65
2022/07/04 11:12:53;;;;;;;7.80;4.07;;;24.90;99.90;;;;;;5005678;28;20033;-64
2022/07/04 11:15:25;;;;;;;5.90;3.97;;;24.80;99.90;;;;;;5004638;28;20037;-66
2022/07/04 11:17:51;;;;;;;6.93;4.03;;;24.70;99.90;;;;;;5006482;28;20180;-64
2022/07/04 11:20:22;;;;;;;6.43;4.00;;;24.80;99.90;;;;;;5001715;28;20022;-65
2022/07/04 11:22:47;;;;;;;;;;;24.80;99.90;;;;;;5005999;28;20593;-66
2022/07/04 11:25:15;;;;;;;6.35;4.22;;;24.70;99.90;;;;;;5004987;28;19960;-66
2022/07/04 11:27:41;;;;;;;5.65;3.88;;;24.60;99.90;;;;;;5009588;28;20065;-64
2022/07/04 11:30:08;;;;;;;12.13;4.13;;;25.10;99.90;;;;;;5010263;28;20065;-67
2022/07/04 11:32:36;;;;;;;5.82;3.83;;;25.40;99.90;;;;;;5016366;28;20462;-64
2022/07/04 11:35:05;;;;;;;5.18;4.07;;;25.50;99.90;;;;;;5010324;28;20017;-64
2022/07/04 11:37:30;;;;;;;6.13;3.15;;;25.70;99.90;;;;;;5023445;28;20040;-63
2022/07/04 11:45:02;;;;;;;6.72;3.63;;;25.90;99.90;;;;;;5032092;28;20029;-64
2022/07/04 11:45:52;;;;;;;5.05;3.53;;;25.90;99.90;;;;;;5030752;28;20087;-64
2022/07/04 11:48:26;;;;;;;5.07;3.58;;;26.10;99.90;;;;;;5028420;28;20064;-64
2022/07/04 11:50:53;;;;;;;9.88;3.78;;;26.30;99.90;;;;;;5015639;28;20528;-64
2022/07/04 11:53:19;;;;;;;9.05;3.55;;;26.10;99.90;;;;;;5017538;28;20030;-64
2022/07/04 11:55:55;;;;;;;6.65;3.20;;;26.40;99.90;;;;;;5032202;28;20100;-64
2022/07/04 11:58:22;;;;;;;6.53;3.33;;;26.50;99.90;;;;;;5028245;28;20029;-66
2022/07/04 12:00:47;;;;;;;5.82;2.97;;;26.50;99.90;;;;;;5018330;28;20025;-64
2022/07/04 12:03:13;;;;;;;5.75;3.00;;;26.40;99.90;;;;;;5011947;28;20048;-65
2022/07/04 12:05:39;;;;;;;10.02;3.33;;;26.50;99.90;;;;;;5009495;28;20061;-66
2022/07/04 12:08:07;;;;;;;7.68;3.55;;;26.70;99.90;;;;;;5025281;28;20143;-65
2022/07/04 12:10:33;;;;;;;6.57;3.28;;;27.10;99.90;;;;;;5001814;28;21640;-66
2022/07/04 12:13:08;;;;;;;5.18;2.85;;;27.70;99.90;;;;;;5010772;28;20026;-64
2022/07/04 12:15:41;;;;;;;6.68;3.45;;;28.00;99.00;;;;;;5029317;28;20355;-64
2022/07/04 12:18:19;;;;;;;3.85;3.00;;;28.10;98.10;;;;;;5005234;28;20474;-64
2022/07/04 12:20:50;;;;;;;6.38;3.50;;;28.30;99.90;;;;;;5011343;28;20037;-65
2022/07/04 12:23:18;;;;;;;9.07;3.45;;;27.90;98.20;;;;;;5008463;28;20048;-65
2022/07/04 12:25:46;;;;;;;5.47;3.30;;;27.70;98.00;;;;;;5030190;28;20044;-64
2022/07/04 12:28:16;;;;;;;10.48;3.28;;;27.30;99.10;;;;;;5017370;28;20026;-67
2022/07/04 12:30:59;;;;;;;7.15;3.47;;;27.40;99.60;;;;;;5018731;28;20018;-64
2022/07/04 12:33:27;;;;;;;9.32;3.70;;;27.70;98.90;;;;;;5010687;28;20073;-67
2022/07/04 12:36:02;;;;;;;4.38;2.90;;;27.80;97.10;;;;;;5016882;28;20041;-67
2022/07/04 12:38:27;;;;;;;4.03;3.20;;;27.80;98.40;;;;;;5027371;28;20026;-69
2022/07/04 12:41:00;;;;;;;4.22;3.00;;;27.90;98.40;;;;;;5027926;28;20107;-68
2022/07/04 12:43:43;;;;;;;7.57;3.20;;;27.60;97.50;;;;;;5011312;28;20049;-66
2022/07/04 12:46:14;;;;;;;6.40;3.00;;;27.40;99.60;;;;;;5015769;28;20033;-66
2022/07/04 12:48:41;;;;;;;3.08;2.70;;;27.60;95.70;;;;;;5013370;28;20034;-68
2022/07/04 12:51:30;;;;;;;4.80;3.50;;;27.70;94.20;;;;;;5009562;28;20083;-66
2022/07/04 12:53:58;;;;;;;7.07;3.10;;;27.90;97.30;;;;;;5020233;28;20056;-67
2022/07/04 12:56:36;;;;;;;3.15;2.80;;;27.80;95.40;;;;;;5004929;28;20134;-66
2022/07/04 12:59:03;;;;;;;4.47;2.53;;;27.90;97.30;;;;;;5010630;28;20111;-65
2022/07/04 13:01:29;;;;;;;5.75;2.90;;;28.00;95.00;;;;;;5010008;28;20083;-66
2022/07/04 13:03:55;;;;;;;4.43;2.88;;;28.10;92.70;;;;;;5008508;28;20030;-67
2022/07/04 13:06:21;;;;;;;7.00;3.17;;;28.10;93.90;;;;;;5008431;28;20034;-66
2022/07/04 13:08:47;;;;;;;6.15;2.55;;;28.30;97.50;;;;;;5020612;28;20440;-66